Time;durP1;ratioP1;P1;durP2;ratioP2;P2;SDS_P1;SDS_P2;PMS_P1;PMS_P2;Temp;Humidity;BMP_temperature;BMP_pressure;BME280_temperature;BME280_humidity;BME280_pressure;Samples;Min_cycle;Max_cycle;Signal;HPM_P1;HPM_P2
2023/09/28 00:01:31;;;;;;;;;;;;;;;28.01;38.00;100880.56;5077037;28;1181;-24
2023/09/28 00:03:57;;;;;;;;;;;;;;;28.04;37.89;100884.78;5076884;28;1131;-24
2023/09/28 00:06:22;;;;;;;;;;;;;;;27.93;38.01;100877.94;5077234;28;1024;-24
2023/09/28 00:08:48;;;;;;;;;;;;;;;27.99;37.94;100875.34;5076312;28;1913;-24
2023/09/28 00:11:13;;;;;;;;;;;;;;;28.03;38.17;100875.00;5077018;28;1130;-24
2023/09/28 00:13:38;;;;;;;;;;;;;;;27.95;38.03;100867.78;5076745;28;1155;-24
2023/09/28 00:16:04;;;;;;;;;;;;;;;27.99;37.98;100869.94;5076662;28;1178;-24
2023/09/28 00:18:29;;;;;;;;;;;;;;;28.00;37.61;100868.06;5076704;28;1081;-24
2023/09/28 00:20:55;;;;;;;;;;;;;;;27.87;38.09;100866.03;5076807;28;1007;-24
2023/09/28 00:23:21;;;;;;;;;;;;;;;27.91;38.08;100870.03;5076304;28;1137;-24
2023/09/28 00:25:47;;;;;;;;;;;;;;;27.84;38.17;100874.50;5067050;28;1036;-24
2023/09/28 00:28:12;;;;;;;;;;;;;;;27.90;38.12;100879.16;5072541;28;1898;-24
2023/09/28 00:30:38;;;;;;;;;;;;;;;27.84;38.29;100878.03;5076462;28;1030;-24
2023/09/28 00:33:03;;;;;;;;;;;;;;;27.96;37.89;100875.72;5075979;28;1116;-24
2023/09/28 00:35:29;;;;;;;;;;;;;;;27.91;37.85;100878.13;5058574;28;1177;-24
2023/09/28 00:37:55;;;;;;;;;;;;;;;27.93;37.86;100875.25;5045034;28;1936;-24
2023/09/28 00:40:21;;;;;;;;;;;;;;;27.84;38.10;100879.91;5058239;28;1290;-24
2023/09/28 00:42:48;;;;;;;;;;;;;;;27.82;38.08;100874.69;5063136;28;1031;-24
2023/09/28 00:45:13;;;;;;;;;;;;;;;27.85;37.98;100871.63;5067334;28;1141;-24
2023/09/28 00:47:39;;;;;;;;;;;;;;;27.93;37.65;100867.13;5069361;28;1914;-24
2023/09/28 00:50:11;;;;;;;;;;;;;;;27.92;37.79;100863.63;5065436;28;1067;-24
2023/09/28 00:52:38;;;;;;;;;;;;;;;27.92;38.03;100860.06;5075423;28;1225;-24
2023/09/28 00:55:04;;;;;;;;;;;;;;;27.94;37.70;100864.28;5048024;28;1087;-24
2023/09/28 00:57:33;;;;;;;;;;;;;;;27.98;37.20;100860.16;5055290;28;1249;-24
2023/09/28 01:00:18;;;;;;;;;;;;;;;28.04;37.63;100860.44;5076000;28;1043;-24
2023/09/28 01:02:50;;;;;;;;;;;;;;;28.05;37.57;100865.66;5062715;28;968;-24
2023/09/28 01:05:19;;;;;;;;;;;;;;;27.91;37.71;100856.50;5076021;28;1145;-23
2023/09/28 01:07:45;;;;;;;;;;;;;;;28.06;37.37;100863.81;5057369;28;2579;-24
2023/09/28 01:10:14;;;;;;;;;;;;;;;28.09;37.11;100863.44;5056494;28;1110;-24
2023/09/28 01:12:41;;;;;;;;;;;;;;;28.08;37.19;100861.72;5064276;28;1106;-24
2023/09/28 01:15:12;;;;;;;;;;;;;;;28.07;37.03;100863.63;5075949;28;1048;-24
2023/09/28 01:17:38;;;;;;;;;;;;;;;27.90;37.59;100860.25;5048930;28;1653;-24
2023/09/28 01:22:51;;;;;;;;;;;;;;;28.06;37.07;100858.41;5057817;28;1186;-24
2023/09/28 01:25:18;;;;;;;;;;;;;;;27.99;37.32;100861.81;5075489;28;1150;-24
2023/09/28 01:27:45;;;;;;;;;;;;;;;27.85;37.56;100851.84;5076186;28;1905;-24
2023/09/28 01:30:11;;;;;;;;;;;;;;;27.98;37.05;100859.31;5075354;28;1082;-24
2023/09/28 01:32:37;;;;;;;;;;;;;;;27.99;37.12;100858.31;5076091;28;1028;-24
2023/09/28 01:35:04;;;;;;;;;;;;;;;27.97;37.27;100852.22;5057436;28;979;-24
2023/09/28 01:37:31;;;;;;;;;;;;;;;28.03;37.31;100853.38;5057229;28;1930;-24
2023/09/28 01:39:57;;;;;;;;;;;;;;;28.02;37.05;100860.63;5057749;28;1044;-24
2023/09/28 01:42:22;;;;;;;;;;;;;;;28.05;37.26;100857.53;5064125;28;883;-24
2023/09/28 01:44:48;;;;;;;;;;;;;;;27.88;37.33;100856.88;5079055;28;1099;-24
2023/09/28 01:47:13;;;;;;;;;;;;;;;27.98;37.39;100853.91;5067319;28;1901;-24
2023/09/28 01:49:39;;;;;;;;;;;;;;;28.01;37.00;100845.41;5060514;28;1063;-24
2023/09/28 01:52:04;;;;;;;;;;;;;;;27.97;37.34;100858.50;5079474;28;1070;-24
2023/09/28 01:54:30;;;;;;;;;;;;;;;27.93;37.33;100853.63;5079329;28;992;-24
2023/09/28 01:56:55;;;;;;;;;;;;;;;27.96;36.99;100854.09;5079307;28;1039;-24
2023/09/28 01:59:21;;;;;;;;;;;;;;;27.91;37.31;100856.50;5061244;28;1171;-24
2023/09/28 02:01:46;;;;;;;;;;;;;;;28.02;36.50;100857.06;5061274;28;1043;-24
2023/09/28 02:04:12;;;;;;;;;;;;;;;28.00;36.23;100865.38;5073803;28;1019;-24
2023/09/28 02:06:39;;;;;;;;;;;;;;;28.03;36.36;100859.59;5079584;28;888;-24
2023/09/28 02:09:05;;;;;;;;;;;;;;;28.01;36.52;100860.81;5060202;28;1914;-24
2023/09/28 02:11:31;;;;;;;;;;;;;;;28.08;36.58;100867.13;5079510;28;1147;-24
2023/09/28 02:13:57;;;;;;;;;;;;;;;27.98;36.79;100868.28;5047968;28;1309;-24
2023/09/28 02:16:22;;;;;;;;;;;;;;;28.01;36.85;100868.94;5066724;28;1098;-24
2023/09/28 02:18:47;;;;;;;;;;;;;;;27.90;36.94;100876.47;5079161;28;1107;-24
2023/09/28 02:21:14;;;;;;;;;;;;;;;27.97;36.67;100868.47;5066679;28;1092;-24
2023/09/28 02:23:40;;;;;;;;;;;;;;;28.01;36.63;100869.75;5078499;28;1188;-24
2023/09/28 02:26:06;;;;;;;;;;;;;;;27.78;37.53;100867.16;5078430;28;1043;-24
2023/09/28 02:28:32;;;;;;;;;;;;;;;27.97;36.80;100865.75;5060443;28;1973;-24
2023/09/28 02:31:03;;;;;;;;;;;;;;;27.89;37.00;100861.28;5060924;28;1125;-24
2023/09/28 02:33:29;;;;;;;;;;;;;;;27.98;36.75;100867.41;5078893;28;1249;-24
2023/09/28 02:35:54;;;;;;;;;;;;;;;27.94;36.41;100869.69;5078992;28;1032;-24
2023/09/28 02:38:20;;;;;;;;;;;;;;;27.92;36.38;100877.13;5072695;28;2240;-24
2023/09/28 02:40:46;;;;;;;;;;;;;;;27.95;36.57;100865.94;5053108;28;1370;-24
2023/09/28 02:43:12;;;;;;;;;;;;;;;27.89;36.15;100873.94;5078472;28;1119;-24
2023/09/28 02:45:37;;;;;;;;;;;;;;;27.96;36.07;100877.59;5078612;28;1067;-24
2023/09/28 02:48:03;;;;;;;;;;;;;;;27.92;36.46;100881.69;5078533;28;1902;-24
2023/09/28 02:50:29;;;;;;;;;;;;;;;27.91;36.37;100872.72;5078651;28;1086;-24
2023/09/28 02:52:55;;;;;;;;;;;;;;;27.84;37.18;100872.63;5078308;28;1057;-24
2023/09/28 02:55:21;;;;;;;;;;;;;;;27.92;37.15;100873.56;5046454;28;1105;-24
2023/09/28 02:57:47;;;;;;;;;;;;;;;27.94;36.94;100868.84;5077692;28;1131;-24
2023/09/28 03:00:14;;;;;;;;;;;;;;;27.73;37.42;100873.09;5078226;28;1181;-24
2023/09/28 03:02:39;;;;;;;;;;;;;;;27.69;37.70;100869.09;5072135;28;1278;-24
2023/09/28 03:05:07;;;;;;;;;;;;;;;27.92;36.85;100870.88;5052785;28;1076;-24
2023/09/28 03:07:34;;;;;;;;;;;;;;;27.74;37.33;100864.78;5077478;28;2318;-24
2023/09/28 03:09:59;;;;;;;;;;;;;;;27.91;37.07;100871.91;5078221;28;1013;-24
2023/09/28 03:12:25;;;;;;;;;;;;;;;27.94;37.16;100875.09;5078326;28;1285;-24
2023/09/28 03:14:50;;;;;;;;;;;;;;;27.96;36.90;100881.13;5078405;28;987;-24
2023/09/28 03:17:16;;;;;;;;;;;;;;;27.94;36.41;100885.06;5056863;28;1052;-24
2023/09/28 03:19:41;;;;;;;;;;;;;;;27.87;36.27;100891.22;5059679;28;1292;-24
2023/09/28 03:22:07;;;;;;;;;;;;;;;27.84;35.63;100886.16;5077361;28;1108;-24
2023/09/28 03:24:32;;;;;;;;;;;;;;;27.80;36.12;100892.09;5065443;28;995;-24
2023/09/28 03:26:58;;;;;;;;;;;;;;;27.99;35.40;100891.56;5077388;28;976;-24
2023/09/28 03:29:23;;;;;;;;;;;;;;;27.93;35.57;100896.88;5077608;28;1990;-24
2023/09/28 03:31:49;;;;;;;;;;;;;;;27.93;35.33;100897.72;5077328;28;1099;-24
2023/09/28 03:34:15;;;;;;;;;;;;;;;27.93;35.48;100892.31;5077363;28;1230;-24
2023/09/28 03:36:40;;;;;;;;;;;;;;;27.90;35.56;100898.09;5076765;28;1251;-24
2023/09/28 03:39:06;;;;;;;;;;;;;;;27.97;35.37;100893.63;5077120;28;2380;-24
2023/09/28 03:41:31;;;;;;;;;;;;;;;27.53;37.89;100908.69;5077190;28;1089;-23
2023/09/28 03:43:57;;;;;;;;;;;;;;;26.97;38.85;100886.31;5077656;28;1106;-23
2023/09/28 03:46:22;;;;;;;;;;;;;;;27.00;39.27;100901.31;5072642;28;1231;-24
2023/09/28 03:48:48;;;;;;;;;;;;;;;26.96;39.61;100898.13;5068871;28;1906;-24
2023/09/28 03:51:16;;;;;;;;;;;;;;;26.84;38.22;100897.69;5072066;28;1101;-24
2023/09/28 03:53:42;;;;;;;;;;;;;;;26.81;40.18;100900.72;5069071;28;1125;-24
2023/09/28 03:56:07;;;;;;;;;;;;;;;26.94;40.19;100905.56;5077682;28;1093;-27
2023/09/28 03:58:34;;;;;;;;;;;;;;;27.23;39.09;100895.09;5076877;28;1081;-28
2023/09/28 04:00:59;;;;;;;;;;;;;;;26.94;40.31;100910.97;5076767;28;1020;-28
2023/09/28 04:03:25;;;;;;;;;;;;;;;27.19;39.72;100915.41;5077341;28;1064;-27
2023/09/28 04:05:50;;;;;;;;;;;;;;;27.31;39.36;100911.25;5076067;28;1102;-26
2023/09/28 04:08:16;;;;;;;;;;;;;;;27.53;39.27;100913.28;5076242;28;1975;-27
2023/09/28 04:10:43;;;;;;;;;;;;;;;27.62;39.51;100914.88;5076593;28;1153;-24
2023/09/28 04:13:09;;;;;;;;;;;;;;;27.86;38.70;100908.44;5072885;28;1368;-24
2023/09/28 04:15:34;;;;;;;;;;;;;;;27.91;38.52;100912.47;5074070;28;1035;-25
2023/09/28 04:18:00;;;;;;;;;;;;;;;28.03;38.22;100907.44;5075789;28;1376;-25
2023/09/28 04:20:26;;;;;;;;;;;;;;;28.14;37.89;100915.09;5070508;28;1381;-25
2023/09/28 04:22:52;;;;;;;;;;;;;;;28.15;37.55;100911.34;5066806;28;1106;-25
2023/09/28 04:25:19;;;;;;;;;;;;;;;28.14;38.13;100909.69;5072872;28;1331;-25
2023/09/28 04:27:45;;;;;;;;;;;;;;;28.27;37.27;100905.47;5073287;28;1977;-24
2023/09/28 04:30:10;;;;;;;;;;;;;;;28.07;38.30;100914.16;5068816;28;1300;-25
2023/09/28 04:32:36;;;;;;;;;;;;;;;28.22;38.71;100916.84;5075877;28;1124;-24
2023/09/28 04:35:06;;;;;;;;;;;;;;;28.20;37.11;100914.34;5075536;28;1289;-25
2023/09/28 04:37:31;;;;;;;;;;;;;;;28.24;38.36;100922.94;5076002;28;1844;-25
2023/09/28 04:39:57;;;;;;;;;;;;;;;27.89;39.21;100925.31;5075952;28;1159;-25
2023/09/28 04:42:22;;;;;;;;;;;;;;;27.86;38.41;100918.44;5075476;28;1182;-24
2023/09/28 04:44:49;;;;;;;;;;;;;;;28.24;38.06;100920.22;5075963;28;1078;-24
2023/09/28 04:47:14;;;;;;;;;;;;;;;28.22;37.50;100919.56;5075723;28;1027;-24
2023/09/28 04:49:41;;;;;;;;;;;;;;;28.22;37.98;100922.25;5073955;28;1917;-25
2023/09/28 04:52:06;;;;;;;;;;;;;;;28.26;38.08;100930.84;5075574;28;1041;-23
2023/09/28 04:54:32;;;;;;;;;;;;;;;28.18;38.16;100923.66;5075389;28;1056;-23
2023/09/28 04:56:58;;;;;;;;;;;;;;;28.18;38.32;100924.50;5074996;28;1016;-24
2023/09/28 04:59:23;;;;;;;;;;;;;;;28.20;38.03;100929.72;5075599;28;1015;-24
2023/09/28 05:01:49;;;;;;;;;;;;;;;28.23;38.12;100926.63;5075396;28;1069;-24
2023/09/28 05:04:16;;;;;;;;;;;;;;;28.27;37.94;100929.81;5075501;28;992;-21
2023/09/28 05:06:42;;;;;;;;;;;;;;;28.26;37.81;100934.38;5075683;28;1194;-23
2023/09/28 05:09:08;;;;;;;;;;;;;;;28.39;38.18;100935.63;5075261;28;1976;-23
2023/09/28 05:11:34;;;;;;;;;;;;;;;28.24;38.43;100942.69;5075085;28;995;-23
2023/09/28 05:14:00;;;;;;;;;;;;;;;28.35;37.80;100941.44;5075171;28;1189;-22
2023/09/28 05:16:25;;;;;;;;;;;;;;;28.33;38.32;100948.88;5075355;28;1127;-22
2023/09/28 05:18:51;;;;;;;;;;;;;;;28.39;37.78;100944.59;5074748;28;1183;-22
2023/09/28 05:21:17;;;;;;;;;;;;;;;28.33;38.23;100950.75;5074704;28;1090;-21
2023/09/28 05:23:42;;;;;;;;;;;;;;;28.21;38.36;100943.06;5075064;28;1090;-23
2023/09/28 05:26:08;;;;;;;;;;;;;;;28.15;38.86;100941.09;5075035;28;1084;-23
2023/09/28 05:28:34;;;;;;;;;;;;;;;28.30;38.21;100938.41;5072904;28;1964;-22
2023/09/28 05:30:59;;;;;;;;;;;;;;;28.11;38.84;100942.50;5074325;28;888;-22
2023/09/28 05:33:25;;;;;;;;;;;;;;;28.30;38.38;100942.97;5074468;28;1111;-23
2023/09/28 05:35:50;;;;;;;;;;;;;;;28.18;38.03;100945.28;5075125;28;1047;-22
2023/09/28 05:38:16;;;;;;;;;;;;;;;28.16;38.17;100941.94;5075241;28;2062;-25
2023/09/28 05:40:41;;;;;;;;;;;;;;;28.40;37.55;100943.56;5074496;28;1051;-24
2023/09/28 05:43:07;;;;;;;;;;;;;;;28.62;36.75;100938.22;5074281;28;988;-24
2023/09/28 05:45:32;;;;;;;;;;;;;;;28.70;36.39;100945.41;5071795;28;1254;-24
2023/09/28 05:47:58;;;;;;;;;;;;;;;28.73;37.00;100934.19;5064454;28;1914;-24
2023/09/28 05:50:23;;;;;;;;;;;;;;;28.88;36.83;100934.16;5074633;28;1329;-25
2023/09/28 05:52:52;;;;;;;;;;;;;;;28.90;36.73;100929.41;5069874;28;1311;-25
2023/09/28 05:55:17;;;;;;;;;;;;;;;28.88;36.82;100941.47;5063793;28;1277;-24
2023/09/28 05:57:43;;;;;;;;;;;;;;;28.94;37.18;100932.56;5069484;28;1378;-25
2023/09/28 06:00:09;;;;;;;;;;;;;;;29.13;36.05;100941.13;5069002;28;1260;-24
2023/09/28 06:02:35;;;;;;;;;;;;;;;29.05;35.88;100934.81;5068023;28;1304;-24
2023/09/28 06:05:01;;;;;;;;;;;;;;;29.03;36.57;100939.56;5066571;28;1195;-24
2023/09/28 06:07:26;;;;;;;;;;;;;;;29.03;36.44;100928.72;5065968;28;1961;-25
2023/09/28 06:09:52;;;;;;;;;;;;;;;28.88;36.26;100938.75;5072252;28;1143;-24
2023/09/28 06:12:18;;;;;;;;;;;;;;;28.98;37.25;100942.00;5074982;28;1015;-24
2023/09/28 06:14:43;;;;;;;;;;;;;;;28.67;39.26;100943.06;5074831;28;999;-23
2023/09/28 06:17:09;;;;;;;;;;;;;;;28.80;38.53;100935.13;5074182;28;1094;-23
2023/09/28 06:19:34;;;;;;;;;;;;;;;28.77;37.78;100934.66;5074807;28;865;-25
2023/09/28 06:22:00;;;;;;;;;;;;;;;28.98;36.87;100930.34;5074885;28;1031;-24
2023/09/28 06:24:26;;;;;;;;;;;;;;;28.95;37.21;100939.66;5075091;28;1074;-23
2023/09/28 06:26:53;;;;;;;;;;;;;;;29.04;37.79;100943.13;5074777;28;1050;-25
2023/09/28 06:29:19;;;;;;;;;;;;;;;29.14;36.75;100951.78;5076687;28;1914;-24
2023/09/28 06:31:44;;;;;;;;;;;;;;;29.05;37.31;100952.91;5075990;28;1105;-24
2023/09/28 06:34:10;;;;;;;;;;;;;;;29.05;37.64;100955.63;5073308;28;1185;-25
2023/09/28 06:36:36;;;;;;;;;;;;;;;29.13;37.02;100962.81;5076909;28;1151;-25
2023/09/28 06:39:03;;;;;;;;;;;;;;;29.30;36.74;100960.66;5078340;28;2118;-26
2023/09/28 06:41:29;;;;;;;;;;;;;;;29.28;36.93;100958.16;5077542;28;1066;-24
2023/09/28 06:43:54;;;;;;;;;;;;;;;29.30;36.75;100971.50;5077721;28;869;-22
2023/09/28 06:46:21;;;;;;;;;;;;;;;29.18;37.41;100960.34;5077904;28;1159;-24
2023/09/28 06:48:46;;;;;;;;;;;;;;;29.22;37.01;100958.94;5065864;28;1910;-23
2023/09/28 06:51:12;;;;;;;;;;;;;;;29.30;36.57;100966.09;5076339;28;1222;-23
2023/09/28 06:53:40;;;;;;;;;;;;;;;29.26;37.24;100964.81;5077764;28;1083;-24
2023/09/28 06:56:06;;;;;;;;;;;;;;;29.31;36.85;100967.78;5076714;28;840;-24
2023/09/28 06:58:32;;;;;;;;;;;;;;;29.21;36.80;100965.41;5078020;28;1195;-24
2023/09/28 07:01:00;;;;;;;;;;;;;;;29.20;36.80;100967.25;5077959;28;1086;-24
2023/09/28 07:03:28;;;;;;;;;;;;;;;29.28;36.75;100966.28;5067056;28;1115;-24
2023/09/28 07:05:53;;;;;;;;;;;;;;;29.32;36.51;100970.31;5077577;28;1057;-23
2023/09/28 07:08:19;;;;;;;;;;;;;;;29.40;36.33;100968.47;5068300;28;1914;-23
2023/09/28 07:10:45;;;;;;;;;;;;;;;29.33;36.67;100963.00;5076895;28;1138;-23
2023/09/28 07:13:10;;;;;;;;;;;;;;;29.33;36.37;100966.53;5075442;28;1312;-24
2023/09/28 07:15:40;;;;;;;;;;;;;;;29.36;35.88;100970.75;5076986;28;1335;-22
2023/09/28 07:18:06;;;;;;;;;;;;;;;29.34;36.18;100970.91;5074586;28;1359;-24
2023/09/28 07:20:31;;;;;;;;;;;;;;;29.46;36.21;100973.97;5071714;28;1379;-24
2023/09/28 07:22:57;;;;;;;;;;;;;;;29.43;36.94;100979.78;5074159;28;1342;-24
2023/09/28 07:25:22;;;;;;;;;;;;;;;29.46;36.50;100984.00;5059150;28;1139;-24
2023/09/28 07:27:52;;;;;;;;;;;;;;;29.54;36.01;100988.44;5058199;28;1898;-24
2023/09/28 07:30:19;;;;;;;;;;;;;;;29.38;37.09;100976.81;5064034;28;1094;-23
2023/09/28 07:32:45;;;;;;;;;;;;;;;29.53;36.75;100976.75;5063755;28;933;-24
2023/09/28 07:35:11;;;;;;;;;;;;;;;29.47;36.39;100977.53;5077454;28;1043;-23
2023/09/28 07:37:37;;;;;;;;;;;;;;;29.28;37.81;100969.00;5076200;28;2262;-24
2023/09/28 07:40:04;;;;;;;;;;;;;;;29.57;36.87;100977.19;5063361;28;988;-22
2023/09/28 07:42:30;;;;;;;;;;;;;;;29.50;37.26;100968.16;5076976;28;1117;-22
2023/09/28 07:44:56;;;;;;;;;;;;;;;29.49;37.62;100977.31;5076970;28;952;-24
2023/09/28 07:47:21;;;;;;;;;;;;;;;29.40;37.87;100973.91;5076839;28;999;-23
2023/09/28 07:49:47;;;;;;;;;;;;;;;29.75;36.71;100971.34;5077111;28;1975;-23
2023/09/28 07:52:13;;;;;;;;;;;;;;;29.75;36.50;100979.47;5076772;28;1154;-23
2023/09/28 07:54:39;;;;;;;;;;;;;;;29.65;37.14;100987.09;5076972;28;1047;-22
2023/09/28 07:57:04;;;;;;;;;;;;;;;29.54;37.12;100980.28;5072427;28;968;-23
2023/09/28 07:59:31;;;;;;;;;;;;;;;29.80;36.88;100987.00;5076834;28;1095;-23
2023/09/28 08:01:56;;;;;;;;;;;;;;;29.80;37.20;100992.44;5076641;28;1088;-23
2023/09/28 08:04:21;;;;;;;;;;;;;;;29.82;37.60;100979.53;5076816;28;1055;-25
2023/09/28 08:06:47;;;;;;;;;;;;;;;30.01;36.75;100988.03;5071198;28;1108;-23
2023/09/28 08:09:14;;;;;;;;;;;;;;;29.88;37.19;100992.28;5072382;28;1984;-23
2023/09/28 08:11:40;;;;;;;;;;;;;;;29.83;37.31;100983.91;5076823;28;983;-24
2023/09/28 08:14:06;;;;;;;;;;;;;;;29.91;37.16;100986.47;5076168;28;1194;-23
2023/09/28 08:16:31;;;;;;;;;;;;;;;29.93;37.07;100987.13;5075946;28;1036;-23
2023/09/28 08:18:57;;;;;;;;;;;;;;;29.94;36.85;100985.25;5075696;28;1419;-25
2023/09/28 08:21:24;;;;;;;;;;;;;;;30.11;36.16;100990.38;5075396;28;894;-23
2023/09/28 08:23:50;;;;;;;;;;;;;;;29.85;37.09;100987.25;5074553;28;1173;-23
2023/09/28 08:26:16;;;;;;;;;;;;;;;30.06;36.07;100994.50;5075812;28;1086;-24
2023/09/28 08:28:42;;;;;;;;;;;;;;;30.03;36.57;100981.34;5066652;28;1918;-23
2023/09/28 08:31:08;;;;;;;;;;;;;;;30.26;35.81;100987.59;5076040;28;1046;-22
2023/09/28 08:33:34;;;;;;;;;;;;;;;30.22;35.82;100986.31;5074809;28;1123;-24
2023/09/28 08:36:00;;;;;;;;;;;;;;;30.28;35.68;100986.34;5075508;28;1039;-24
2023/09/28 08:38:25;;;;;;;;;;;;;;;30.30;35.98;100989.72;5073463;28;2034;-21
2023/09/28 08:40:51;;;;;;;;;;;;;;;30.26;35.58;100996.56;5075495;28;1127;-24
2023/09/28 08:43:17;;;;;;;;;;;;;;;30.28;36.26;100991.78;5058212;28;1119;-23
2023/09/28 08:45:43;;;;;;;;;;;;;;;30.16;36.64;100988.75;5075794;28;941;-25
2023/09/28 08:48:09;;;;;;;;;;;;;;;30.24;36.35;100993.22;5057690;28;1906;-24
2023/09/28 08:50:38;;;;;;;;;;;;;;;30.30;36.36;100981.56;5075853;28;1035;-23
2023/09/28 08:53:06;;;;;;;;;;;;;;;30.37;35.70;100973.47;5057312;28;1131;-24
2023/09/28 08:55:35;;;;;;;;;;;;;;;30.36;36.57;100969.09;5057428;28;1047;-24
2023/09/28 08:58:01;;;;;;;;;;;;;;;30.39;36.23;100967.84;5075348;28;1012;-24
2023/09/28 09:00:28;;;;;;;;;;;;;;;30.41;36.32;100955.72;5057572;28;1060;-24
2023/09/28 09:02:54;;;;;;;;;;;;;;;30.46;35.98;100959.72;5075402;28;1050;-24
2023/09/28 09:05:20;;;;;;;;;;;;;;;30.48;36.36;100954.94;5057746;28;1119;-24
2023/09/28 09:07:45;;;;;;;;;;;;;;;30.46;36.13;100952.44;5075017;28;1934;-24
2023/09/28 09:10:11;;;;;;;;;;;;;;;30.39;36.11;100949.69;5057733;28;1016;-24
2023/09/28 09:12:37;;;;;;;;;;;;;;;30.44;35.98;100946.38;5075515;28;1091;-24
2023/09/28 09:15:04;;;;;;;;;;;;;;;30.42;36.22;100945.72;5075734;28;1230;-24
2023/09/28 09:17:33;;;;;;;;;;;;;;;30.53;35.82;100947.03;5075395;28;1104;-24
2023/09/28 09:19:59;;;;;;;;;;;;;;;30.47;36.21;100950.53;5074654;28;1088;-24
2023/09/28 09:22:28;;;;;;;;;;;;;;;30.47;36.29;100948.66;5075091;28;1058;-24
2023/09/28 09:24:54;;;;;;;;;;;;;;;30.57;36.48;100953.72;5074311;28;1051;-24
2023/09/28 09:27:28;;;;;;;;;;;;;;;30.65;36.20;100950.00;5074964;28;1174;-23
2023/09/28 09:29:58;;;;;;;;;;;;;;;30.57;36.17;100955.59;5074737;28;1405;-25
2023/09/28 09:32:25;;;;;;;;;;;;;;;30.64;35.89;100956.47;5074269;28;1099;-24
2023/09/28 09:34:51;;;;;;;;;;;;;;;30.64;36.15;100948.34;5075222;28;1024;-24
2023/09/28 09:37:17;;;;;;;;;;;;;;;30.53;36.29;100957.91;5075296;28;2288;-24
2023/09/28 09:39:42;;;;;;;;;;;;;;;30.59;35.65;100958.94;5074033;28;983;-24
2023/09/28 09:42:08;;;;;;;;;;;;;;;30.64;35.44;100953.75;5075573;28;1179;-23
2023/09/28 09:44:34;;;;;;;;;;;;;;;28.58;40.22;100945.03;5070725;28;1070;-24
2023/09/28 09:47:00;;;;;;;;;;;;;;;24.58;46.12;100937.31;5065867;28;1135;-24
2023/09/28 09:49:26;;;;;;;;;;;;;;;22.94;48.75;100929.41;5074671;28;1910;-24
2023/09/28 09:51:51;;;;;;;;;;;;;;;22.41;49.76;100934.44;5057514;28;1119;-24
2023/09/28 09:54:17;;;;;;;;;;;;;;;22.45;51.87;100938.53;5075387;28;1108;-25
2023/09/28 09:56:49;;;;;;;;;;;;;;;22.32;52.45;100938.00;5074869;28;1104;-25
2023/09/28 09:59:19;;;;;;;;;;;;;;;22.12;52.81;100930.84;5057176;28;1039;-24
2023/09/28 10:01:48;;;;;;;;;;;;;;;22.09;53.25;100931.16;5074566;28;1030;-23
2023/09/28 10:04:14;;;;;;;;;;;;;;;21.98;53.47;100924.13;5077448;28;1054;-24
2023/09/28 10:06:40;;;;;;;;;;;;;;;21.70;54.08;100932.03;5078806;28;1026;-24
2023/09/28 10:09:10;;;;;;;;;;;;;;;21.58;54.11;100930.47;5060674;28;2123;-23
2023/09/28 10:11:36;;;;;;;;;;;;;;;21.60;54.45;100931.19;5078990;28;1152;-23
2023/09/28 10:14:02;;;;;;;;;;;;;;;21.50;54.84;100928.50;5061262;28;1004;-23
2023/09/28 10:16:27;;;;;;;;;;;;;;;21.31;55.38;100918.63;5078618;28;1028;-23
2023/09/28 10:18:53;;;;;;;;;;;;;;;21.25;55.48;100923.53;5078784;28;1128;-24
2023/09/28 10:21:19;;;;;;;;;;;;;;;21.22;55.75;100923.00;5060801;28;1143;-24
2023/09/28 10:23:47;;;;;;;;;;;;;;;21.04;56.41;100911.13;5078249;28;1108;-24
2023/09/28 10:26:13;;;;;;;;;;;;;;;22.29;53.83;100915.00;5078507;28;1166;-24
2023/09/28 10:28:57;;;;;;;;;;;;;;;25.93;43.49;100923.09;5078613;28;1910;-24
2023/09/28 10:31:23;;;;;;;;;;;;;;;27.32;40.30;100921.03;5078319;28;1094;-24
2023/09/28 10:33:59;;;;;;;;;;;;;;;27.85;39.70;100917.56;5060101;28;1038;-24
2023/09/28 10:36:26;;;;;;;;;;;;;;;28.36;38.21;100918.75;5078032;28;1070;-24
2023/09/28 10:39:11;;;;;;;;;;;;;;;28.33;39.11;100919.13;5071921;28;1825;-23
2023/09/28 10:41:37;;;;;;;;;;;;;;;28.46;38.55;100923.88;5065854;28;1042;-24
2023/09/28 10:44:11;;;;;;;;;;;;;;;28.51;38.56;100925.19;5076164;28;1332;-24
2023/09/28 10:46:37;;;;;;;;;;;;;;;28.75;38.44;100921.31;5055072;28;1118;-24
2023/09/28 10:49:03;;;;;;;;;;;;;;;29.09;38.05;100919.00;5072865;28;1907;-23
2023/09/28 10:51:29;;;;;;;;;;;;;;;29.22;38.45;100923.72;5078462;28;1030;-24
2023/09/28 10:53:54;;;;;;;;;;;;;;;28.90;40.04;100913.16;5077835;28;1000;-23
2023/09/28 10:56:21;;;;;;;;;;;;;;;29.11;39.89;100916.09;5066255;28;1356;-24
2023/09/28 10:58:46;;;;;;;;;;;;;;;29.21;39.94;100914.75;5059201;28;1079;-23
2023/09/28 11:01:12;;;;;;;;;;;;;;;29.28;39.89;100916.69;5059475;28;1071;-23
2023/09/28 11:03:38;;;;;;;;;;;;;;;29.36;39.77;100913.00;5069453;28;964;-27
2023/09/28 11:06:04;;;;;;;;;;;;;;;29.42;39.86;100904.09;5074758;28;1120;-22
2023/09/28 11:08:32;;;;;;;;;;;;;;;29.37;38.01;100912.81;5072643;28;1906;-25
2023/09/28 11:11:01;;;;;;;;;;;;;;;29.28;38.22;100916.69;5077289;28;1067;-24
2023/09/28 11:13:29;;;;;;;;;;;;;;;29.24;38.86;100900.00;5072529;28;1074;-22
2023/09/28 11:15:55;;;;;;;;;;;;;;;29.18;38.61;100898.88;5072933;28;1530;-23
2023/09/28 11:18:21;;;;;;;;;;;;;;;29.31;37.97;100894.63;5059678;28;1007;-22
2023/09/28 11:20:47;;;;;;;;;;;;;;;29.48;37.39;100888.94;5058831;28;1439;-21
2023/09/28 11:23:12;;;;;;;;;;;;;;;29.65;35.90;100895.75;5066004;28;1401;-21
2023/09/28 11:25:42;;;;;;;;;;;;;;;29.91;36.94;100882.59;5077410;28;1210;-24
2023/09/28 11:28:08;;;;;;;;;;;;;;;29.32;35.71;100775.22;5068061;28;1898;-25
2023/09/28 11:30:33;;;;;;;;;;;;;;;29.92;36.01;100893.25;5076827;28;1078;-24
2023/09/28 11:33:02;;;;;;;;;;;;;;;29.83;36.45;100875.44;5076941;28;1119;-23
2023/09/28 11:35:29;;;;;;;;;;;;;;;29.69;36.44;100875.38;5077540;28;1100;-23
2023/09/28 11:37:58;;;;;;;;;;;;;;;29.73;36.63;100878.50;5073587;28;1860;-24
2023/09/28 11:40:24;;;;;;;;;;;;;;;29.59;36.41;100877.59;5069695;28;1144;-24
2023/09/28 11:42:49;;;;;;;;;;;;;;;29.45;37.08;100877.44;5058933;28;1050;-24
2023/09/28 11:45:17;;;;;;;;;;;;;;;29.57;37.10;100880.47;5058574;28;1179;-24
2023/09/28 11:47:45;;;;;;;;;;;;;;;29.90;36.21;100876.31;5076814;28;1967;-22
2023/09/28 11:50:11;;;;;;;;;;;;;;;29.94;34.85;100874.06;5076563;28;1058;-21
2023/09/28 11:52:37;;;;;;;;;;;;;;;29.78;34.36;100864.38;5069180;28;1241;-21
2023/09/28 11:55:05;;;;;;;;;;;;;;;29.74;33.91;100873.94;5075857;28;1129;-21
2023/09/28 11:57:34;;;;;;;;;;;;;;;29.59;34.44;100872.16;5076468;28;1067;-22
2023/09/28 12:00:00;;;;;;;;;;;;;;;29.46;34.93;100872.88;5058172;28;1328;-21
2023/09/28 12:02:26;;;;;;;;;;;;;;;29.87;33.98;100865.88;5076615;28;1092;-21
2023/09/28 12:04:51;;;;;;;;;;;;;;;29.99;32.66;100862.59;5068809;28;1030;-21
2023/09/28 12:07:19;;;;;;;;;;;;;;;29.99;32.92;100868.88;5069530;28;1859;-22
2023/09/28 12:09:44;;;;;;;;;;;;;;;30.17;33.18;100868.34;5063846;28;1934;-23
2023/09/28 12:12:10;;;;;;;;;;;;;;;30.33;32.84;100863.63;5062740;28;1058;-21
2023/09/28 12:14:35;;;;;;;;;;;;;;;30.34;32.92;100869.91;5075915;28;1154;-21
2023/09/28 12:17:01;;;;;;;;;;;;;;;30.33;33.00;100874.47;5075604;28;1257;-21
2023/09/28 12:19:26;;;;;;;;;;;;;;;30.49;32.79;100867.03;5075390;28;1316;-22
2023/09/28 12:21:52;;;;;;;;;;;;;;;30.48;33.03;100859.94;5073795;28;1229;-22
2023/09/28 12:24:17;;;;;;;;;;;;;;;30.64;33.01;100873.16;5074773;28;1253;-22
2023/09/28 12:26:44;;;;;;;;;;;;;;;30.66;33.59;100876.47;5076123;28;1277;-25
2023/09/28 12:29:10;;;;;;;;;;;;;;;30.46;34.49;100889.16;5076399;28;1906;-22
2023/09/28 12:31:35;;;;;;;;;;;;;;;30.42;34.52;100886.00;5075889;28;1359;-22
2023/09/28 12:34:01;;;;;;;;;;;;;;;30.36;33.49;100865.13;5076012;28;1265;-22
2023/09/28 12:36:27;;;;;;;;;;;;;;;30.28;33.88;100871.56;5075996;28;1305;-23
2023/09/28 12:38:53;;;;;;;;;;;;;;;30.20;34.56;100875.25;5076181;28;2218;-23
2023/09/28 12:41:18;;;;;;;;;;;;;;;30.10;34.47;100863.91;5076604;28;1090;-23
2023/09/28 12:43:45;;;;;;;;;;;;;;;30.08;35.01;100876.84;5074134;28;1316;-23
2023/09/28 12:46:11;;;;;;;;;;;;;;;30.06;34.84;100883.28;5075773;28;1046;-23